sensor_id;sensor_type;location;lat;lon;timestamp;temperature;humidity
52615;DHT22;38508;53.158;6.614;2022-08-19T00:00:26;18.30;99.90
52615;DHT22;38508;53.158;6.614;2022-08-19T00:02:53;18.30;99.90
52615;DHT22;38508;53.158;6.614;2022-08-19T00:05:20;18.30;99.90
52615;DHT22;38508;53.158;6.614;2022-08-19T00:07:47;18.20;99.90
52615;DHT22;38508;53.158;6.614;2022-08-19T00:10:15;18.30;99.90
52615;DHT22;38508;53.158;6.614;2022-08-19T00:12:41;18.30;99.90
52615;DHT22;38508;53.158;6.614;2022-08-19T00:15:09;18.30;99.90
52615;DHT22;38508;53.158;6.614;2022-08-19T00:17:38;18.30;99.90
52615;DHT22;38508;53.158;6.614;2022-08-19T00:20:04;18.30;99.90
52615;DHT22;38508;53.158;6.614;2022-08-19T00:22:30;18.40;99.90
52615;DHT22;38508;53.158;6.614;2022-08-19T00:24:56;18.50;99.90
52615;DHT22;38508;53.158;6.614;2022-08-19T00:27:22;18.50;99.90
52615;DHT22;38508;53.158;6.614;2022-08-19T00:29:48;18.50;99.90
52615;DHT22;38508;53.158;6.614;2022-08-19T00:32:13;18.40;99.90
52615;DHT22;38508;53.158;6.614;2022-08-19T00:34:39;18.40;99.90
52615;DHT22;38508;53.158;6.614;2022-08-19T00:37:05;18.30;99.90
52615;DHT22;38508;53.158;6.614;2022-08-19T00:39:30;18.20;99.90
52615;DHT22;38508;53.158;6.614;2022-08-19T00:41:56;18.10;99.90
52615;DHT22;38508;53.158;6.614;2022-08-19T00:44:28;18.00;99.90
52615;DHT22;38508;53.158;6.614;2022-08-19T00:46:55;18.10;99.90
52615;DHT22;38508;53.158;6.614;2022-08-19T00:49:40;18.10;99.90
52615;DHT22;38508;53.158;6.614;2022-08-19T00:52:09;18.20;99.90
52615;DHT22;38508;53.158;6.614;2022-08-19T00:54:39;18.20;99.90
52615;DHT22;38508;53.158;6.614;2022-08-19T00:57:09;18.20;99.90
52615;DHT22;38508;53.158;6.614;2022-08-19T00:59:37;18.10;99.90
52615;DHT22;38508;53.158;6.614;2022-08-19T01:02:04;18.10;99.90
52615;DHT22;38508;53.158;6.614;2022-08-19T01:04:30;18.10;99.90
52615;DHT22;38508;53.158;6.614;2022-08-19T01:06:57;18.10;99.90
52615;DHT22;38508;53.158;6.614;2022-08-19T01:09:22;18.10;99.90
52615;DHT22;38508;53.158;6.614;2022-08-19T01:11:48;18.00;99.90
52615;DHT22;38508;53.158;6.614;2022-08-19T01:14:15;18.00;99.90
52615;DHT22;38508;53.158;6.614;2022-08-19T01:16:43;17.80;99.90
52615;DHT22;38508;53.158;6.614;2022-08-19T01:19:31;17.80;99.90
52615;DHT22;38508;53.158;6.614;2022-08-19T01:22:05;17.80;99.90
52615;DHT22;38508;53.158;6.614;2022-08-19T01:24:31;17.70;99.90
52615;DHT22;38508;53.158;6.614;2022-08-19T01:26:57;17.70;99.90
52615;DHT22;38508;53.158;6.614;2022-08-19T01:29:23;17.70;99.90
52615;DHT22;38508;53.158;6.614;2022-08-19T01:31:49;17.70;99.90
52615;DHT22;38508;53.158;6.614;2022-08-19T01:34:18;17.70;99.90
52615;DHT22;38508;53.158;6.614;2022-08-19T01:36:46;17.70;99.90
52615;DHT22;38508;53.158;6.614;2022-08-19T01:39:15;17.70;99.90
52615;DHT22;38508;53.158;6.614;2022-08-19T01:41:42;17.70;99.90
52615;DHT22;38508;53.158;6.614;2022-08-19T01:44:09;17.70;99.90
52615;DHT22;38508;53.158;6.614;2022-08-19T01:46:36;17.60;99.90
52615;DHT22;38508;53.158;6.614;2022-08-19T01:49:03;17.60;99.90
52615;DHT22;38508;53.158;6.614;2022-08-19T01:51:29;17.70;99.90
52615;DHT22;38508;53.158;6.614;2022-08-19T01:53:56;17.60;99.90
52615;DHT22;38508;53.158;6.614;2022-08-19T01:56:23;17.70;99.90
52615;DHT22;38508;53.158;6.614;2022-08-19T01:59:03;17.60;99.90
52615;DHT22;38508;53.158;6.614;2022-08-19T02:01:30;17.70;99.90
52615;DHT22;38508;53.158;6.614;2022-08-19T02:04:00;17.60;99.90
52615;DHT22;38508;53.158;6.614;2022-08-19T02:06:28;17.60;99.90
52615;DHT22;38508;53.158;6.614;2022-08-19T02:08:55;17.50;99.90
52615;DHT22;38508;53.158;6.614;2022-08-19T02:11:23;17.50;99.90
52615;DHT22;38508;53.158;6.614;2022-08-19T02:13:52;17.50;99.90
52615;DHT22;38508;53.158;6.614;2022-08-19T02:16:18;17.50;99.90
52615;DHT22;38508;53.158;6.614;2022-08-19T02:18:45;17.50;99.90
52615;DHT22;38508;53.158;6.614;2022-08-19T02:21:12;17.40;99.90
52615;DHT22;38508;53.158;6.614;2022-08-19T02:23:38;17.40;99.90
52615;DHT22;38508;53.158;6.614;2022-08-19T02:26:04;17.40;99.90
52615;DHT22;38508;53.158;6.614;2022-08-19T02:28:30;17.50;99.90
52615;DHT22;38508;53.158;6.614;2022-08-19T02:30:55;17.40;99.90
52615;DHT22;38508;53.158;6.614;2022-08-19T02:33:21;17.50;99.90
52615;DHT22;38508;53.158;6.614;2022-08-19T02:35:46;17.50;99.90
52615;DHT22;38508;53.158;6.614;2022-08-19T02:38:13;17.40;99.90
52615;DHT22;38508;53.158;6.614;2022-08-19T02:41:00;17.40;99.90
52615;DHT22;38508;53.158;6.614;2022-08-19T02:43:29;17.30;99.90
52615;DHT22;38508;53.158;6.614;2022-08-19T02:45:55;17.30;99.90
52615;DHT22;38508;53.158;6.614;2022-08-19T02:48:22;17.40;99.90
52615;DHT22;38508;53.158;6.614;2022-08-19T02:50:50;17.30;99.90
52615;DHT22;38508;53.158;6.614;2022-08-19T02:53:22;17.30;99.90
52615;DHT22;38508;53.158;6.614;2022-08-19T02:55:49;17.40;99.90
52615;DHT22;38508;53.158;6.614;2022-08-19T02:58:15;17.50;99.90
52615;DHT22;38508;53.158;6.614;2022-08-19T03:00:47;17.50;99.90
52615;DHT22;38508;53.158;6.614;2022-08-19T03:03:15;17.40;99.90
52615;DHT22;38508;53.158;6.614;2022-08-19T03:05:41;17.40;99.90
52615;DHT22;38508;53.158;6.614;2022-08-19T03:08:07;17.40;99.90
52615;DHT22;38508;53.158;6.614;2022-08-19T03:10:40;17.40;99.90
52615;DHT22;38508;53.158;6.614;2022-08-19T03:13:08;17.40;99.90
52615;DHT22;38508;53.158;6.614;2022-08-19T03:15:34;17.30;99.90
52615;DHT22;38508;53.158;6.614;2022-08-19T03:17:59;17.30;99.90
52615;DHT22;38508;53.158;6.614;2022-08-19T03:20:25;17.30;99.90
52615;DHT22;38508;53.158;6.614;2022-08-19T03:22:51;17.30;99.90
52615;DHT22;38508;53.158;6.614;2022-08-19T03:25:17;17.30;99.90
52615;DHT22;38508;53.158;6.614;2022-08-19T03:27:43;17.30;99.90
52615;DHT22;38508;53.158;6.614;2022-08-19T03:30:10;17.30;99.90
52615;DHT22;38508;53.158;6.614;2022-08-19T03:32:36;17.40;99.90
52615;DHT22;38508;53.158;6.614;2022-08-19T03:35:02;17.40;99.90
52615;DHT22;38508;53.158;6.614;2022-08-19T03:37:28;17.30;99.90
52615;DHT22;38508;53.158;6.614;2022-08-19T03:39:53;17.30;99.90
52615;DHT22;38508;53.158;6.614;2022-08-19T03:42:19;17.30;99.90
52615;DHT22;38508;53.158;6.614;2022-08-19T03:44:45;17.30;99.90
52615;DHT22;38508;53.158;6.614;2022-08-19T03:47:10;17.20;99.90
52615;DHT22;38508;53.158;6.614;2022-08-19T03:49:41;17.30;99.90
52615;DHT22;38508;53.158;6.614;2022-08-19T03:52:07;17.20;99.90
52615;DHT22;38508;53.158;6.614;2022-08-19T03:54:33;17.10;99.90
52615;DHT22;38508;53.158;6.614;2022-08-19T03:56:59;17.20;99.90
52615;DHT22;38508;53.158;6.614;2022-08-19T03:59:28;17.20;99.90
52615;DHT22;38508;53.158;6.614;2022-08-19T04:01:56;17.20;99.90
52615;DHT22;38508;53.158;6.614;2022-08-19T04:04:22;17.30;99.90
52615;DHT22;38508;53.158;6.614;2022-08-19T04:06:48;17.20;99.90
52615;DHT22;38508;53.158;6.614;2022-08-19T04:09:14;17.20;99.90
52615;DHT22;38508;53.158;6.614;2022-08-19T04:11:45;17.20;99.90
52615;DHT22;38508;53.158;6.614;2022-08-19T04:14:17;17.20;99.90
52615;DHT22;38508;53.158;6.614;2022-08-19T04:16:45;17.10;99.90
52615;DHT22;38508;53.158;6.614;2022-08-19T04:19:12;17.10;99.90
52615;DHT22;38508;53.158;6.614;2022-08-19T04:21:38;17.10;99.90
52615;DHT22;38508;53.158;6.614;2022-08-19T04:24:05;17.20;99.90
52615;DHT22;38508;53.158;6.614;2022-08-19T04:26:33;17.20;99.90
52615;DHT22;38508;53.158;6.614;2022-08-19T04:29:01;17.20;99.90
52615;DHT22;38508;53.158;6.614;2022-08-19T04:31:30;17.10;99.90
52615;DHT22;38508;53.158;6.614;2022-08-19T04:33:58;17.10;99.90
52615;DHT22;38508;53.158;6.614;2022-08-19T04:36:27;17.00;99.90
52615;DHT22;38508;53.158;6.614;2022-08-19T04:38:54;17.10;99.90
52615;DHT22;38508;53.158;6.614;2022-08-19T04:41:21;17.10;99.90
52615;DHT22;38508;53.158;6.614;2022-08-19T04:44:05;17.10;99.90
52615;DHT22;38508;53.158;6.614;2022-08-19T04:46:31;17.20;99.90
52615;DHT22;38508;53.158;6.614;2022-08-19T04:48:58;17.40;99.90
52615;DHT22;38508;53.158;6.614;2022-08-19T04:51:23;17.50;99.90
52615;DHT22;38508;53.158;6.614;2022-08-19T04:53:50;17.50;99.90
52615;DHT22;38508;53.158;6.614;2022-08-19T04:56:17;17.50;99.90
52615;DHT22;38508;53.158;6.614;2022-08-19T04:58:45;17.50;99.90
52615;DHT22;38508;53.158;6.614;2022-08-19T05:01:17;17.60;99.90
52615;DHT22;38508;53.158;6.614;2022-08-19T05:03:43;17.70;99.90
52615;DHT22;38508;53.158;6.614;2022-08-19T05:06:11;17.70;99.90
52615;DHT22;38508;53.158;6.614;2022-08-19T05:08:40;17.60;99.90
52615;DHT22;38508;53.158;6.614;2022-08-19T05:11:17;17.60;99.90
52615;DHT22;38508;53.158;6.614;2022-08-19T05:13:44;17.60;99.90
52615;DHT22;38508;53.158;6.614;2022-08-19T05:16:11;17.50;99.90
52615;DHT22;38508;53.158;6.614;2022-08-19T05:18:38;17.60;99.90
52615;DHT22;38508;53.158;6.614;2022-08-19T05:21:23;17.60;99.90
52615;DHT22;38508;53.158;6.614;2022-08-19T05:24:07;17.70;99.90
52615;DHT22;38508;53.158;6.614;2022-08-19T05:26:43;17.80;99.90
52615;DHT22;38508;53.158;6.614;2022-08-19T05:29:13;17.90;99.90
52615;DHT22;38508;53.158;6.614;2022-08-19T05:31:39;18.10;99.90
52615;DHT22;38508;53.158;6.614;2022-08-19T05:34:06;18.20;99.90
52615;DHT22;38508;53.158;6.614;2022-08-19T05:36:43;18.30;99.90
52615;DHT22;38508;53.158;6.614;2022-08-19T05:39:16;18.50;99.90
52615;DHT22;38508;53.158;6.614;2022-08-19T05:41:47;18.50;99.90
52615;DHT22;38508;53.158;6.614;2022-08-19T05:44:14;18.60;99.90
52615;DHT22;38508;53.158;6.614;2022-08-19T05:46:43;18.60;99.90
52615;DHT22;38508;53.158;6.614;2022-08-19T05:49:13;18.80;99.90
52615;DHT22;38508;53.158;6.614;2022-08-19T05:51:40;18.80;99.90
52615;DHT22;38508;53.158;6.614;2022-08-19T05:54:06;18.90;99.90
52615;DHT22;38508;53.158;6.614;2022-08-19T05:56:34;19.10;99.90
52615;DHT22;38508;53.158;6.614;2022-08-19T05:59:04;19.10;99.90
52615;DHT22;38508;53.158;6.614;2022-08-19T06:01:34;19.30;99.90
52615;DHT22;38508;53.158;6.614;2022-08-19T06:04:00;19.40;99.90
52615;DHT22;38508;53.158;6.614;2022-08-19T06:06:26;19.60;99.90
52615;DHT22;38508;53.158;6.614;2022-08-19T06:08:51;19.60;99.90
52615;DHT22;38508;53.158;6.614;2022-08-19T06:11:22;19.70;99.90
52615;DHT22;38508;53.158;6.614;2022-08-19T06:13:51;19.80;99.90
52615;DHT22;38508;53.158;6.614;2022-08-19T06:16:21;19.80;99.90
52615;DHT22;38508;53.158;6.614;2022-08-19T06:18:51;19.90;99.90
52615;DHT22;38508;53.158;6.614;2022-08-19T06:21:28;20.10;99.90
52615;DHT22;38508;53.158;6.614;2022-08-19T06:23:55;20.20;99.90
52615;DHT22;38508;53.158;6.614;2022-08-19T06:26:22;20.30;99.90
52615;DHT22;38508;53.158;6.614;2022-08-19T06:28:48;20.40;99.90
52615;DHT22;38508;53.158;6.614;2022-08-19T06:31:20;20.40;99.90
52615;DHT22;38508;53.158;6.614;2022-08-19T06:33:47;20.40;99.90
52615;DHT22;38508;53.158;6.614;2022-08-19T06:36:25;20.50;99.90
52615;DHT22;38508;53.158;6.614;2022-08-19T06:38:55;20.60;99.90
52615;DHT22;38508;53.158;6.614;2022-08-19T06:41:23;20.80;99.90
52615;DHT22;38508;53.158;6.614;2022-08-19T06:43:49;20.80;99.90
52615;DHT22;38508;53.158;6.614;2022-08-19T06:46:16;20.80;99.90
52615;DHT22;38508;53.158;6.614;2022-08-19T06:48:43;20.90;99.90
52615;DHT22;38508;53.158;6.614;2022-08-19T06:51:08;21.00;99.90
52615;DHT22;38508;53.158;6.614;2022-08-19T06:53:34;21.10;99.90
52615;DHT22;38508;53.158;6.614;2022-08-19T06:56:00;21.20;99.90
52615;DHT22;38508;53.158;6.614;2022-08-19T06:58:30;21.20;99.90
52615;DHT22;38508;53.158;6.614;2022-08-19T07:00:59;21.40;99.90
52615;DHT22;38508;53.158;6.614;2022-08-19T07:03:27;21.60;99.90
52615;DHT22;38508;53.158;6.614;2022-08-19T07:05:54;21.70;99.90
52615;DHT22;38508;53.158;6.614;2022-08-19T07:08:19;21.80;99.90
52615;DHT22;38508;53.158;6.614;2022-08-19T07:10:46;21.90;99.90
52615;DHT22;38508;53.158;6.614;2022-08-19T07:13:12;21.90;99.90
52615;DHT22;38508;53.158;6.614;2022-08-19T07:15:37;21.90;99.90
52615;DHT22;38508;53.158;6.614;2022-08-19T07:18:03;21.90;99.90
52615;DHT22;38508;53.158;6.614;2022-08-19T07:20:29;21.90;99.90
52615;DHT22;38508;53.158;6.614;2022-08-19T07:22:54;22.10;99.90
52615;DHT22;38508;53.158;6.614;2022-08-19T07:25:20;22.20;99.90
52615;DHT22;38508;53.158;6.614;2022-08-19T07:27:49;22.30;99.90
52615;DHT22;38508;53.158;6.614;2022-08-19T07:30:16;22.10;99.90
52615;DHT22;38508;53.158;6.614;2022-08-19T07:32:42;22.00;99.90
52615;DHT22;38508;53.158;6.614;2022-08-19T07:35:09;22.00;99.90
52615;DHT22;38508;53.158;6.614;2022-08-19T07:37:35;22.10;99.90
52615;DHT22;38508;53.158;6.614;2022-08-19T07:40:05;22.10;99.90
52615;DHT22;38508;53.158;6.614;2022-08-19T07:42:31;22.10;99.90
52615;DHT22;38508;53.158;6.614;2022-08-19T07:44:58;22.20;99.90
52615;DHT22;38508;53.158;6.614;2022-08-19T07:47:24;22.10;99.90
52615;DHT22;38508;53.158;6.614;2022-08-19T07:49:49;22.00;99.90
52615;DHT22;38508;53.158;6.614;2022-08-19T07:52:15;22.00;99.90
52615;DHT22;38508;53.158;6.614;2022-08-19T07:54:42;22.00;99.90
52615;DHT22;38508;53.158;6.614;2022-08-19T07:57:08;21.90;99.90
52615;DHT22;38508;53.158;6.614;2022-08-19T07:59:35;22.10;99.90
52615;DHT22;38508;53.158;6.614;2022-08-19T08:02:01;22.20;99.90
52615;DHT22;38508;53.158;6.614;2022-08-19T08:04:28;22.30;99.90
52615;DHT22;38508;53.158;6.614;2022-08-19T08:07:13;22.10;99.90
52615;DHT22;38508;53.158;6.614;2022-08-19T08:09:57;22.30;99.90
52615;DHT22;38508;53.158;6.614;2022-08-19T08:12:30;22.80;99.90
52615;DHT22;38508;53.158;6.614;2022-08-19T08:15:00;23.10;99.90
52615;DHT22;38508;53.158;6.614;2022-08-19T08:17:30;23.30;99.90
52615;DHT22;38508;53.158;6.614;2022-08-19T08:19:56;23.50;99.90
52615;DHT22;38508;53.158;6.614;2022-08-19T08:22:23;23.60;99.90
52615;DHT22;38508;53.158;6.614;2022-08-19T08:25:17;23.80;99.90
52615;DHT22;38508;53.158;6.614;2022-08-19T08:27:44;23.50;99.90
52615;DHT22;38508;53.158;6.614;2022-08-19T08:30:14;23.40;99.90
52615;DHT22;38508;53.158;6.614;2022-08-19T08:32:41;23.60;99.90
52615;DHT22;38508;53.158;6.614;2022-08-19T08:35:09;23.70;99.90
52615;DHT22;38508;53.158;6.614;2022-08-19T08:37:35;23.90;99.90
52615;DHT22;38508;53.158;6.614;2022-08-19T08:45:24;24.10;99.90
52615;DHT22;38508;53.158;6.614;2022-08-19T08:47:51;24.20;99.90
52615;DHT22;38508;53.158;6.614;2022-08-19T08:50:57;24.60;99.90
52615;DHT22;38508;53.158;6.614;2022-08-19T08:53:19;24.60;99.90
52615;DHT22;38508;53.158;6.614;2022-08-19T08:55:46;24.50;99.90
52615;DHT22;38508;53.158;6.614;2022-08-19T08:58:18;24.40;99.90
52615;DHT22;38508;53.158;6.614;2022-08-19T09:00:48;24.60;99.90
52615;DHT22;38508;53.158;6.614;2022-08-19T09:03:24;24.60;99.90
52615;DHT22;38508;53.158;6.614;2022-08-19T09:06:18;24.50;99.90
52615;DHT22;38508;53.158;6.614;2022-08-19T09:09:05;24.60;99.90
52615;DHT22;38508;53.158;6.614;2022-08-19T09:15:06;24.60;99.90
52615;DHT22;38508;53.158;6.614;2022-08-19T09:17:08;24.80;99.90
52615;DHT22;38508;53.158;6.614;2022-08-19T09:19:46;25.00;99.90
52615;DHT22;38508;53.158;6.614;2022-08-19T09:22:12;25.10;99.90
52615;DHT22;38508;53.158;6.614;2022-08-19T09:24:38;25.50;99.90
52615;DHT22;38508;53.158;6.614;2022-08-19T09:27:05;25.50;99.90
52615;DHT22;38508;53.158;6.614;2022-08-19T09:29:30;25.50;99.90
52615;DHT22;38508;53.158;6.614;2022-08-19T09:31:56;25.60;99.90
52615;DHT22;38508;53.158;6.614;2022-08-19T09:34:22;25.80;99.90
52615;DHT22;38508;53.158;6.614;2022-08-19T09:36:48;25.60;99.90
52615;DHT22;38508;53.158;6.614;2022-08-19T09:39:18;25.50;99.90
52615;DHT22;38508;53.158;6.614;2022-08-19T09:41:44;25.60;99.90
52615;DHT22;38508;53.158;6.614;2022-08-19T09:44:09;25.70;99.90
52615;DHT22;38508;53.158;6.614;2022-08-19T09:46:38;25.80;99.90
52615;DHT22;38508;53.158;6.614;2022-08-19T09:49:03;26.00;99.90
52615;DHT22;38508;53.158;6.614;2022-08-19T09:51:31;25.90;99.90
52615;DHT22;38508;53.158;6.614;2022-08-19T09:54:02;25.80;99.90
52615;DHT22;38508;53.158;6.614;2022-08-19T09:56:29;26.10;99.90
52615;DHT22;38508;53.158;6.614;2022-08-19T09:58:57;26.40;99.90
52615;DHT22;38508;53.158;6.614;2022-08-19T10:01:25;26.50;99.90
52615;DHT22;38508;53.158;6.614;2022-08-19T10:03:53;26.40;99.90
52615;DHT22;38508;53.158;6.614;2022-08-19T10:06:22;26.10;99.90
52615;DHT22;38508;53.158;6.614;2022-08-19T10:08:48;26.10;99.90
52615;DHT22;38508;53.158;6.614;2022-08-19T10:11:14;26.30;99.90
52615;DHT22;38508;53.158;6.614;2022-08-19T10:13:43;26.80;99.90
52615;DHT22;38508;53.158;6.614;2022-08-19T10:16:12;27.10;99.90
52615;DHT22;38508;53.158;6.614;2022-08-19T10:18:39;27.40;99.90
52615;DHT22;38508;53.158;6.614;2022-08-19T10:21:16;27.30;99.90
52615;DHT22;38508;53.158;6.614;2022-08-19T10:23:44;27.40;99.90
52615;DHT22;38508;53.158;6.614;2022-08-19T10:26:13;27.60;99.90
52615;DHT22;38508;53.158;6.614;2022-08-19T10:28:39;27.80;99.90
52615;DHT22;38508;53.158;6.614;2022-08-19T10:31:11;27.80;99.90
52615;DHT22;38508;53.158;6.614;2022-08-19T10:33:37;27.90;99.90
52615;DHT22;38508;53.158;6.614;2022-08-19T10:36:06;27.90;99.90
52615;DHT22;38508;53.158;6.614;2022-08-19T10:38:33;27.70;99.90
52615;DHT22;38508;53.158;6.614;2022-08-19T10:41:13;27.90;99.90
52615;DHT22;38508;53.158;6.614;2022-08-19T10:43:40;27.90;99.90
52615;DHT22;38508;53.158;6.614;2022-08-19T10:46:11;28.20;99.90
52615;DHT22;38508;53.158;6.614;2022-08-19T10:48:36;28.30;99.90
52615;DHT22;38508;53.158;6.614;2022-08-19T10:51:03;28.30;99.90
52615;DHT22;38508;53.158;6.614;2022-08-19T10:53:47;28.40;99.90
52615;DHT22;38508;53.158;6.614;2022-08-19T10:56:13;28.30;99.90
52615;DHT22;38508;53.158;6.614;2022-08-19T10:58:58;28.30;99.80
52615;DHT22;38508;53.158;6.614;2022-08-19T11:01:27;28.00;99.90
52615;DHT22;38508;53.158;6.614;2022-08-19T11:03:55;28.00;99.90
52615;DHT22;38508;53.158;6.614;2022-08-19T11:06:23;28.20;99.90
52615;DHT22;38508;53.158;6.614;2022-08-19T11:08:51;28.70;99.90
52615;DHT22;38508;53.158;6.614;2022-08-19T11:11:17;28.90;99.90
52615;DHT22;38508;53.158;6.614;2022-08-19T11:13:43;28.50;99.80
52615;DHT22;38508;53.158;6.614;2022-08-19T11:16:16;28.40;99.90
52615;DHT22;38508;53.158;6.614;2022-08-19T11:18:45;28.20;99.80
52615;DHT22;38508;53.158;6.614;2022-08-19T11:23:39;27.60;99.90
52615;DHT22;38508;53.158;6.614;2022-08-19T11:26:05;27.80;99.90
52615;DHT22;38508;53.158;6.614;2022-08-19T11:28:31;28.00;99.90
52615;DHT22;38508;53.158;6.614;2022-08-19T11:30:57;27.90;99.40
52615;DHT22;38508;53.158;6.614;2022-08-19T11:33:23;27.70;99.90
52615;DHT22;38508;53.158;6.614;2022-08-19T11:35:48;27.70;99.90
52615;DHT22;38508;53.158;6.614;2022-08-19T11:38:14;27.80;99.90
52615;DHT22;38508;53.158;6.614;2022-08-19T11:40:40;27.90;99.90
52615;DHT22;38508;53.158;6.614;2022-08-19T11:43:07;27.60;99.90
52615;DHT22;38508;53.158;6.614;2022-08-19T11:45:35;27.40;99.90
52615;DHT22;38508;53.158;6.614;2022-08-19T11:48:01;27.50;99.90
52615;DHT22;38508;53.158;6.614;2022-08-19T11:50:27;28.00;99.90
52615;DHT22;38508;53.158;6.614;2022-08-19T11:52:55;28.10;99.90
52615;DHT22;38508;53.158;6.614;2022-08-19T11:55:21;28.40;99.90
52615;DHT22;38508;53.158;6.614;2022-08-19T11:57:47;28.70;99.90
52615;DHT22;38508;53.158;6.614;2022-08-19T12:00:13;29.00;99.90
52615;DHT22;38508;53.158;6.614;2022-08-19T12:02:40;29.00;99.90
52615;DHT22;38508;53.158;6.614;2022-08-19T12:05:06;28.90;99.60
52615;DHT22;38508;53.158;6.614;2022-08-19T12:07:32;28.90;99.90
52615;DHT22;38508;53.158;6.614;2022-08-19T12:09:59;28.80;99.60
52615;DHT22;38508;53.158;6.614;2022-08-19T12:12:26;28.60;99.70
52615;DHT22;38508;53.158;6.614;2022-08-19T12:14:52;28.30;99.80
52615;DHT22;38508;53.158;6.614;2022-08-19T12:17:26;28.20;99.80
52615;DHT22;38508;53.158;6.614;2022-08-19T12:19:53;28.10;99.90
52615;DHT22;38508;53.158;6.614;2022-08-19T12:22:18;28.10;99.60
52615;DHT22;38508;53.158;6.614;2022-08-19T12:24:45;28.20;99.60
52615;DHT22;38508;53.158;6.614;2022-08-19T12:27:11;28.30;99.60
52615;DHT22;38508;53.158;6.614;2022-08-19T12:29:36;27.80;99.90
52615;DHT22;38508;53.158;6.614;2022-08-19T12:32:02;27.60;99.90
52615;DHT22;38508;53.158;6.614;2022-08-19T12:34:30;27.70;99.90
52615;DHT22;38508;53.158;6.614;2022-08-19T12:36:57;28.00;99.90
52615;DHT22;38508;53.158;6.614;2022-08-19T12:39:23;28.10;99.60
52615;DHT22;38508;53.158;6.614;2022-08-19T12:41:49;28.00;99.90
52615;DHT22;38508;53.158;6.614;2022-08-19T12:44:15;28.10;99.80
52615;DHT22;38508;53.158;6.614;2022-08-19T12:46:42;27.70;99.80
52615;DHT22;38508;53.158;6.614;2022-08-19T12:49:08;27.50;99.90
52615;DHT22;38508;53.158;6.614;2022-08-19T12:51:35;27.70;99.90
52615;DHT22;38508;53.158;6.614;2022-08-19T12:54:01;27.60;99.90
52615;DHT22;38508;53.158;6.614;2022-08-19T12:56:27;27.90;99.90
52615;DHT22;38508;53.158;6.614;2022-08-19T12:58:52;28.10;99.60
52615;DHT22;38508;53.158;6.614;2022-08-19T13:01:19;27.90;99.90
52615;DHT22;38508;53.158;6.614;2022-08-19T13:03:46;27.70;99.90
52615;DHT22;38508;53.158;6.614;2022-08-19T13:06:12;27.80;99.90
52615;DHT22;38508;53.158;6.614;2022-08-19T13:08:39;27.90;99.90
52615;DHT22;38508;53.158;6.614;2022-08-19T13:11:13;27.90;99.90
52615;DHT22;38508;53.158;6.614;2022-08-19T13:13:41;27.70;99.70
52615;DHT22;38508;53.158;6.614;2022-08-19T13:16:09;27.70;99.70
52615;DHT22;38508;53.158;6.614;2022-08-19T13:18:36;27.50;99.90
52615;DHT22;38508;53.158;6.614;2022-08-19T13:21:07;27.50;99.90
52615;DHT22;38508;53.158;6.614;2022-08-19T13:23:34;27.70;99.90
52615;DHT22;38508;53.158;6.614;2022-08-19T13:26:03;27.70;99.90
52615;DHT22;38508;53.158;6.614;2022-08-19T13:28:30;27.80;99.90
52615;DHT22;38508;53.158;6.614;2022-08-19T13:31:20;27.80;99.90
52615;DHT22;38508;53.158;6.614;2022-08-19T13:34:05;27.90;99.90
52615;DHT22;38508;53.158;6.614;2022-08-19T13:36:35;27.50;99.90
52615;DHT22;38508;53.158;6.614;2022-08-19T13:39:01;27.20;99.90
52615;DHT22;38508;53.158;6.614;2022-08-19T13:41:27;27.10;99.90
52615;DHT22;38508;53.158;6.614;2022-08-19T13:43:53;27.10;99.90
52615;DHT22;38508;53.158;6.614;2022-08-19T13:46:19;27.10;99.90
52615;DHT22;38508;53.158;6.614;2022-08-19T13:48:46;27.20;99.90
52615;DHT22;38508;53.158;6.614;2022-08-19T13:51:14;27.20;99.90
52615;DHT22;38508;53.158;6.614;2022-08-19T13:53:42;27.00;99.90
52615;DHT22;38508;53.158;6.614;2022-08-19T13:56:12;27.00;99.90
52615;DHT22;38508;53.158;6.614;2022-08-19T13:58:38;26.50;99.90
52615;DHT22;38508;53.158;6.614;2022-08-19T14:01:05;26.50;99.90
52615;DHT22;38508;53.158;6.614;2022-08-19T14:03:32;26.50;99.90
52615;DHT22;38508;53.158;6.614;2022-08-19T14:05:59;26.50;99.90
52615;DHT22;38508;53.158;6.614;2022-08-19T14:08:25;26.40;99.90
52615;DHT22;38508;53.158;6.614;2022-08-19T14:10:54;26.30;99.90
52615;DHT22;38508;53.158;6.614;2022-08-19T14:13:21;26.20;99.90
52615;DHT22;38508;53.158;6.614;2022-08-19T14:15:48;26.10;99.90
52615;DHT22;38508;53.158;6.614;2022-08-19T14:18:15;26.10;99.90
52615;DHT22;38508;53.158;6.614;2022-08-19T14:20:42;26.10;99.90
52615;DHT22;38508;53.158;6.614;2022-08-19T14:23:08;26.10;99.90
52615;DHT22;38508;53.158;6.614;2022-08-19T14:25:34;26.10;99.90
52615;DHT22;38508;53.158;6.614;2022-08-19T14:28:00;26.00;99.90
52615;DHT22;38508;53.158;6.614;2022-08-19T14:30:34;25.80;99.90
52615;DHT22;38508;53.158;6.614;2022-08-19T14:33:00;25.80;99.90
52615;DHT22;38508;53.158;6.614;2022-08-19T14:35:28;25.60;99.90
52615;DHT22;38508;53.158;6.614;2022-08-19T14:37:54;25.60;99.90
52615;DHT22;38508;53.158;6.614;2022-08-19T14:40:21;25.60;99.90
52615;DHT22;38508;53.158;6.614;2022-08-19T14:42:51;25.90;99.90
52615;DHT22;38508;53.158;6.614;2022-08-19T14:45:17;26.10;99.90
52615;DHT22;38508;53.158;6.614;2022-08-19T14:47:42;26.10;99.90
52615;DHT22;38508;53.158;6.614;2022-08-19T14:50:10;26.20;99.90
52615;DHT22;38508;53.158;6.614;2022-08-19T14:52:36;26.20;99.90
52615;DHT22;38508;53.158;6.614;2022-08-19T14:55:04;26.20;99.90
52615;DHT22;38508;53.158;6.614;2022-08-19T14:57:29;26.00;99.90
52615;DHT22;38508;53.158;6.614;2022-08-19T14:59:55;26.10;99.90
52615;DHT22;38508;53.158;6.614;2022-08-19T15:02:22;26.20;99.90
52615;DHT22;38508;53.158;6.614;2022-08-19T15:04:48;26.10;99.90
52615;DHT22;38508;53.158;6.614;2022-08-19T15:07:16;26.30;99.90
52615;DHT22;38508;53.158;6.614;2022-08-19T15:09:41;26.20;99.90
52615;DHT22;38508;53.158;6.614;2022-08-19T15:12:10;26.10;99.90
52615;DHT22;38508;53.158;6.614;2022-08-19T15:14:36;26.30;99.90
52615;DHT22;38508;53.158;6.614;2022-08-19T15:17:04;26.40;99.90
52615;DHT22;38508;53.158;6.614;2022-08-19T15:19:31;26.60;99.90
52615;DHT22;38508;53.158;6.614;2022-08-19T15:21:58;26.80;99.90
52615;DHT22;38508;53.158;6.614;2022-08-19T15:24:24;26.90;99.90
52615;DHT22;38508;53.158;6.614;2022-08-19T15:26:52;27.10;99.90
52615;DHT22;38508;53.158;6.614;2022-08-19T15:29:18;27.00;99.90
52615;DHT22;38508;53.158;6.614;2022-08-19T15:31:44;26.80;99.90
52615;DHT22;38508;53.158;6.614;2022-08-19T15:34:10;26.60;99.90
52615;DHT22;38508;53.158;6.614;2022-08-19T15:36:36;26.50;99.90
52615;DHT22;38508;53.158;6.614;2022-08-19T15:39:04;26.70;99.90
52615;DHT22;38508;53.158;6.614;2022-08-19T15:41:30;27.10;99.90
52615;DHT22;38508;53.158;6.614;2022-08-19T15:43:58;27.30;99.90
52615;DHT22;38508;53.158;6.614;2022-08-19T15:46:26;27.40;99.90